sensor_id;sensor_type;location;lat;lon;timestamp;P1;durP1;ratioP1;P2;durP2;ratioP2
9739;SDS011;4909;42.680;26.324;2024-02-26T00:00:11;249.30;;;107.97;;
9739;SDS011;4909;42.680;26.324;2024-02-26T00:02:40;248.77;;;108.57;;
9739;SDS011;4909;42.680;26.324;2024-02-26T00:05:07;250.23;;;107.73;;
9739;SDS011;4909;42.680;26.324;2024-02-26T00:07:34;245.70;;;104.67;;
9739;SDS011;4909;42.680;26.324;2024-02-26T00:10:01;248.07;;;109.37;;
9739;SDS011;4909;42.680;26.324;2024-02-26T00:12:29;249.50;;;109.50;;
9739;SDS011;4909;42.680;26.324;2024-02-26T00:14:56;247.73;;;104.83;;
9739;SDS011;4909;42.680;26.324;2024-02-26T00:17:23;243.73;;;105.63;;
9739;SDS011;4909;42.680;26.324;2024-02-26T00:19:52;242.87;;;102.07;;
9739;SDS011;4909;42.680;26.324;2024-02-26T00:22:19;247.33;;;105.83;;
9739;SDS011;4909;42.680;26.324;2024-02-26T00:24:47;228.33;;;103.00;;
9739;SDS011;4909;42.680;26.324;2024-02-26T00:27:14;238.87;;;107.23;;
9739;SDS011;4909;42.680;26.324;2024-02-26T00:29:41;247.53;;;103.63;;
9739;SDS011;4909;42.680;26.324;2024-02-26T00:32:08;246.40;;;107.67;;
9739;SDS011;4909;42.680;26.324;2024-02-26T00:34:35;246.47;;;103.43;;
9739;SDS011;4909;42.680;26.324;2024-02-26T00:37:03;248.97;;;105.37;;
9739;SDS011;4909;42.680;26.324;2024-02-26T00:39:31;248.13;;;107.80;;
9739;SDS011;4909;42.680;26.324;2024-02-26T00:41:58;248.67;;;104.03;;
9739;SDS011;4909;42.680;26.324;2024-02-26T00:44:24;251.63;;;109.77;;
9739;SDS011;4909;42.680;26.324;2024-02-26T00:46:51;252.23;;;108.73;;
9739;SDS011;4909;42.680;26.324;2024-02-26T00:49:18;246.77;;;103.93;;
9739;SDS011;4909;42.680;26.324;2024-02-26T00:51:45;250.80;;;108.23;;
9739;SDS011;4909;42.680;26.324;2024-02-26T00:54:14;249.07;;;105.23;;
9739;SDS011;4909;42.680;26.324;2024-02-26T00:56:41;246.70;;;105.63;;
9739;SDS011;4909;42.680;26.324;2024-02-26T00:59:08;251.80;;;105.07;;
9739;SDS011;4909;42.680;26.324;2024-02-26T01:01:34;244.23;;;101.93;;
9739;SDS011;4909;42.680;26.324;2024-02-26T01:04:01;245.93;;;107.83;;
9739;SDS011;4909;42.680;26.324;2024-02-26T01:06:29;246.53;;;102.67;;
9739;SDS011;4909;42.680;26.324;2024-02-26T01:08:56;244.20;;;103.50;;
9739;SDS011;4909;42.680;26.324;2024-02-26T01:11:25;250.97;;;104.57;;
9739;SDS011;4909;42.680;26.324;2024-02-26T01:13:52;250.73;;;104.47;;
9739;SDS011;4909;42.680;26.324;2024-02-26T01:16:21;246.37;;;105.53;;
9739;SDS011;4909;42.680;26.324;2024-02-26T01:18:48;246.50;;;104.83;;
9739;SDS011;4909;42.680;26.324;2024-02-26T01:21:15;249.53;;;104.77;;
9739;SDS011;4909;42.680;26.324;2024-02-26T01:23:42;250.83;;;106.83;;
9739;SDS011;4909;42.680;26.324;2024-02-26T01:26:09;254.77;;;111.37;;
9739;SDS011;4909;42.680;26.324;2024-02-26T01:28:38;249.03;;;104.27;;
9739;SDS011;4909;42.680;26.324;2024-02-26T01:31:05;247.03;;;102.63;;
9739;SDS011;4909;42.680;26.324;2024-02-26T01:33:33;251.87;;;106.33;;
9739;SDS011;4909;42.680;26.324;2024-02-26T01:36:00;249.33;;;104.70;;
9739;SDS011;4909;42.680;26.324;2024-02-26T01:38:27;251.10;;;106.53;;
9739;SDS011;4909;42.680;26.324;2024-02-26T01:40:54;248.47;;;104.33;;
9739;SDS011;4909;42.680;26.324;2024-02-26T01:43:21;249.70;;;106.93;;
9739;SDS011;4909;42.680;26.324;2024-02-26T01:45:50;249.03;;;102.80;;
9739;SDS011;4909;42.680;26.324;2024-02-26T01:48:17;250.13;;;107.20;;
9739;SDS011;4909;42.680;26.324;2024-02-26T01:50:44;254.03;;;108.13;;
9739;SDS011;4909;42.680;26.324;2024-02-26T01:53:11;253.63;;;105.53;;
9739;SDS011;4909;42.680;26.324;2024-02-26T01:55:39;249.47;;;107.93;;
9739;SDS011;4909;42.680;26.324;2024-02-26T01:58:07;251.23;;;105.30;;
9739;SDS011;4909;42.680;26.324;2024-02-26T02:00:34;250.53;;;107.17;;
9739;SDS011;4909;42.680;26.324;2024-02-26T02:03:02;248.50;;;106.87;;
9739;SDS011;4909;42.680;26.324;2024-02-26T02:05:31;243.37;;;102.23;;
9739;SDS011;4909;42.680;26.324;2024-02-26T02:07:59;249.33;;;105.70;;
9739;SDS011;4909;42.680;26.324;2024-02-26T02:10:28;250.27;;;108.67;;
9739;SDS011;4909;42.680;26.324;2024-02-26T02:12:55;250.17;;;105.90;;
9739;SDS011;4909;42.680;26.324;2024-02-26T02:15:22;250.80;;;106.50;;
9739;SDS011;4909;42.680;26.324;2024-02-26T02:17:49;252.73;;;109.60;;
9739;SDS011;4909;42.680;26.324;2024-02-26T02:20:18;251.47;;;107.37;;
9739;SDS011;4909;42.680;26.324;2024-02-26T02:22:46;252.37;;;107.37;;
9739;SDS011;4909;42.680;26.324;2024-02-26T02:25:13;256.10;;;108.10;;
9739;SDS011;4909;42.680;26.324;2024-02-26T02:27:40;256.57;;;110.10;;
9739;SDS011;4909;42.680;26.324;2024-02-26T02:30:09;255.20;;;107.57;;
9739;SDS011;4909;42.680;26.324;2024-02-26T02:32:37;257.33;;;110.83;;
9739;SDS011;4909;42.680;26.324;2024-02-26T02:35:07;257.30;;;111.10;;
9739;SDS011;4909;42.680;26.324;2024-02-26T02:37:34;256.43;;;111.13;;
9739;SDS011;4909;42.680;26.324;2024-02-26T02:40:04;254.53;;;109.93;;
9739;SDS011;4909;42.680;26.324;2024-02-26T02:42:31;255.13;;;109.80;;
9739;SDS011;4909;42.680;26.324;2024-02-26T02:44:58;255.03;;;108.13;;
9739;SDS011;4909;42.680;26.324;2024-02-26T02:47:25;258.07;;;110.53;;
9739;SDS011;4909;42.680;26.324;2024-02-26T02:49:52;255.73;;;108.30;;
9739;SDS011;4909;42.680;26.324;2024-02-26T02:52:19;261.80;;;113.43;;
9739;SDS011;4909;42.680;26.324;2024-02-26T02:54:46;258.67;;;112.83;;
9739;SDS011;4909;42.680;26.324;2024-02-26T02:57:15;260.07;;;113.07;;
9739;SDS011;4909;42.680;26.324;2024-02-26T02:59:42;260.73;;;112.03;;
9739;SDS011;4909;42.680;26.324;2024-02-26T03:02:08;260.53;;;109.50;;
9739;SDS011;4909;42.680;26.324;2024-02-26T03:04:35;260.57;;;108.70;;
9739;SDS011;4909;42.680;26.324;2024-02-26T03:07:02;257.50;;;107.50;;
9739;SDS011;4909;42.680;26.324;2024-02-26T03:09:29;254.47;;;110.33;;
9739;SDS011;4909;42.680;26.324;2024-02-26T03:11:57;257.47;;;110.53;;
9739;SDS011;4909;42.680;26.324;2024-02-26T03:14:26;259.67;;;111.03;;
9739;SDS011;4909;42.680;26.324;2024-02-26T03:16:53;260.47;;;111.47;;
9739;SDS011;4909;42.680;26.324;2024-02-26T03:19:20;259.07;;;110.00;;
9739;SDS011;4909;42.680;26.324;2024-02-26T03:21:47;262.10;;;112.50;;
9739;SDS011;4909;42.680;26.324;2024-02-26T03:24:14;258.80;;;113.17;;
9739;SDS011;4909;42.680;26.324;2024-02-26T03:26:41;256.33;;;106.13;;
9739;SDS011;4909;42.680;26.324;2024-02-26T03:29:08;256.03;;;107.27;;
9739;SDS011;4909;42.680;26.324;2024-02-26T03:31:37;257.80;;;108.67;;
9739;SDS011;4909;42.680;26.324;2024-02-26T03:34:04;258.57;;;112.27;;
9739;SDS011;4909;42.680;26.324;2024-02-26T03:36:30;257.13;;;108.03;;
9739;SDS011;4909;42.680;26.324;2024-02-26T03:38:57;260.80;;;114.33;;
9739;SDS011;4909;42.680;26.324;2024-02-26T03:41:25;260.77;;;111.27;;
9739;SDS011;4909;42.680;26.324;2024-02-26T03:43:52;259.17;;;109.80;;
9739;SDS011;4909;42.680;26.324;2024-02-26T03:46:19;255.57;;;109.47;;
9739;SDS011;4909;42.680;26.324;2024-02-26T03:48:47;261.40;;;110.63;;
9739;SDS011;4909;42.680;26.324;2024-02-26T03:51:14;256.50;;;111.07;;
9739;SDS011;4909;42.680;26.324;2024-02-26T03:53:41;258.43;;;110.67;;
9739;SDS011;4909;42.680;26.324;2024-02-26T03:56:08;259.43;;;110.07;;
9739;SDS011;4909;42.680;26.324;2024-02-26T03:58:37;257.83;;;110.90;;
9739;SDS011;4909;42.680;26.324;2024-02-26T04:01:04;258.40;;;110.03;;
9739;SDS011;4909;42.680;26.324;2024-02-26T04:03:33;259.10;;;113.27;;
9739;SDS011;4909;42.680;26.324;2024-02-26T04:06:02;256.57;;;112.30;;
9739;SDS011;4909;42.680;26.324;2024-02-26T04:08:29;255.50;;;110.70;;
9739;SDS011;4909;42.680;26.324;2024-02-26T04:10:56;255.53;;;109.50;;
9739;SDS011;4909;42.680;26.324;2024-02-26T04:13:23;257.70;;;110.53;;
9739;SDS011;4909;42.680;26.324;2024-02-26T04:15:50;257.53;;;110.23;;
9739;SDS011;4909;42.680;26.324;2024-02-26T04:18:17;255.17;;;110.83;;
9739;SDS011;4909;42.680;26.324;2024-02-26T04:20:44;257.07;;;113.17;;
9739;SDS011;4909;42.680;26.324;2024-02-26T04:23:12;253.33;;;106.43;;
9739;SDS011;4909;42.680;26.324;2024-02-26T04:25:39;263.47;;;114.83;;
9739;SDS011;4909;42.680;26.324;2024-02-26T04:28:06;260.17;;;112.37;;
9739;SDS011;4909;42.680;26.324;2024-02-26T04:30:33;269.00;;;116.50;;
9739;SDS011;4909;42.680;26.324;2024-02-26T04:33:00;252.10;;;108.13;;
9739;SDS011;4909;42.680;26.324;2024-02-26T04:35:27;255.37;;;110.60;;
9739;SDS011;4909;42.680;26.324;2024-02-26T04:37:54;254.10;;;105.37;;
9739;SDS011;4909;42.680;26.324;2024-02-26T04:40:23;258.33;;;113.03;;
9739;SDS011;4909;42.680;26.324;2024-02-26T04:42:50;261.07;;;111.63;;
9739;SDS011;4909;42.680;26.324;2024-02-26T04:45:17;261.53;;;114.67;;
9739;SDS011;4909;42.680;26.324;2024-02-26T04:47:44;257.17;;;110.97;;
9739;SDS011;4909;42.680;26.324;2024-02-26T04:50:11;257.60;;;112.93;;
9739;SDS011;4909;42.680;26.324;2024-02-26T04:52:38;255.80;;;112.03;;
9739;SDS011;4909;42.680;26.324;2024-02-26T04:55:05;261.07;;;112.13;;
9739;SDS011;4909;42.680;26.324;2024-02-26T04:57:34;256.20;;;115.87;;
9739;SDS011;4909;42.680;26.324;2024-02-26T05:00:00;261.93;;;116.00;;
9739;SDS011;4909;42.680;26.324;2024-02-26T05:02:28;262.23;;;116.17;;
9739;SDS011;4909;42.680;26.324;2024-02-26T05:04:57;259.40;;;117.63;;
9739;SDS011;4909;42.680;26.324;2024-02-26T05:07:24;256.60;;;112.80;;
9739;SDS011;4909;42.680;26.324;2024-02-26T05:09:51;251.60;;;109.87;;
9739;SDS011;4909;42.680;26.324;2024-02-26T05:12:18;255.83;;;108.57;;
9739;SDS011;4909;42.680;26.324;2024-02-26T05:14:47;262.00;;;116.97;;
9739;SDS011;4909;42.680;26.324;2024-02-26T05:17:14;259.57;;;113.00;;
9739;SDS011;4909;42.680;26.324;2024-02-26T05:19:40;268.33;;;115.63;;
9739;SDS011;4909;42.680;26.324;2024-02-26T05:22:07;260.30;;;113.77;;
9739;SDS011;4909;42.680;26.324;2024-02-26T05:24:37;254.27;;;114.33;;
9739;SDS011;4909;42.680;26.324;2024-02-26T05:27:04;262.93;;;112.97;;
9739;SDS011;4909;42.680;26.324;2024-02-26T05:29:31;264.37;;;112.97;;
9739;SDS011;4909;42.680;26.324;2024-02-26T05:31:59;264.00;;;112.13;;
9739;SDS011;4909;42.680;26.324;2024-02-26T05:34:26;263.60;;;113.00;;
9739;SDS011;4909;42.680;26.324;2024-02-26T05:36:55;264.67;;;117.13;;
9739;SDS011;4909;42.680;26.324;2024-02-26T05:39:22;269.87;;;114.07;;
9739;SDS011;4909;42.680;26.324;2024-02-26T05:41:49;265.70;;;112.93;;
9739;SDS011;4909;42.680;26.324;2024-02-26T05:44:16;267.70;;;117.53;;
9739;SDS011;4909;42.680;26.324;2024-02-26T05:46:43;277.37;;;115.40;;
9739;SDS011;4909;42.680;26.324;2024-02-26T05:49:11;279.37;;;120.90;;
9739;SDS011;4909;42.680;26.324;2024-02-26T05:51:38;272.43;;;117.93;;
9739;SDS011;4909;42.680;26.324;2024-02-26T05:54:05;267.80;;;115.50;;
9739;SDS011;4909;42.680;26.324;2024-02-26T05:56:33;271.67;;;119.93;;
9739;SDS011;4909;42.680;26.324;2024-02-26T05:59:00;264.33;;;113.13;;
9739;SDS011;4909;42.680;26.324;2024-02-26T06:01:27;265.43;;;120.00;;
9739;SDS011;4909;42.680;26.324;2024-02-26T06:03:54;258.30;;;111.73;;
9739;SDS011;4909;42.680;26.324;2024-02-26T06:06:22;260.43;;;112.43;;
9739;SDS011;4909;42.680;26.324;2024-02-26T06:08:49;251.77;;;105.73;;
9739;SDS011;4909;42.680;26.324;2024-02-26T06:11:16;248.40;;;105.57;;
9739;SDS011;4909;42.680;26.324;2024-02-26T06:13:44;241.97;;;103.30;;
9739;SDS011;4909;42.680;26.324;2024-02-26T06:16:11;241.40;;;102.60;;
9739;SDS011;4909;42.680;26.324;2024-02-26T06:18:38;246.50;;;103.40;;
9739;SDS011;4909;42.680;26.324;2024-02-26T06:21:08;245.00;;;102.43;;
9739;SDS011;4909;42.680;26.324;2024-02-26T06:23:37;247.50;;;106.07;;
9739;SDS011;4909;42.680;26.324;2024-02-26T06:26:04;247.67;;;103.30;;
9739;SDS011;4909;42.680;26.324;2024-02-26T06:28:31;249.93;;;105.60;;
9739;SDS011;4909;42.680;26.324;2024-02-26T06:31:00;246.43;;;101.33;;
9739;SDS011;4909;42.680;26.324;2024-02-26T06:33:28;247.03;;;107.37;;
9739;SDS011;4909;42.680;26.324;2024-02-26T06:35:54;249.83;;;108.07;;
9739;SDS011;4909;42.680;26.324;2024-02-26T06:38:21;258.93;;;110.47;;
9739;SDS011;4909;42.680;26.324;2024-02-26T06:40:50;263.37;;;115.00;;
9739;SDS011;4909;42.680;26.324;2024-02-26T06:43:17;268.20;;;114.40;;
9739;SDS011;4909;42.680;26.324;2024-02-26T06:45:44;263.80;;;112.97;;
9739;SDS011;4909;42.680;26.324;2024-02-26T06:48:11;267.47;;;113.50;;
9739;SDS011;4909;42.680;26.324;2024-02-26T06:50:38;269.37;;;117.83;;
9739;SDS011;4909;42.680;26.324;2024-02-26T06:53:06;279.37;;;121.17;;
9739;SDS011;4909;42.680;26.324;2024-02-26T06:55:33;283.30;;;123.50;;
9739;SDS011;4909;42.680;26.324;2024-02-26T06:58:02;291.57;;;127.53;;
9739;SDS011;4909;42.680;26.324;2024-02-26T07:00:29;288.63;;;129.47;;
9739;SDS011;4909;42.680;26.324;2024-02-26T07:02:55;285.07;;;129.47;;
9739;SDS011;4909;42.680;26.324;2024-02-26T07:05:23;283.33;;;134.30;;
9739;SDS011;4909;42.680;26.324;2024-02-26T07:07:50;286.90;;;136.83;;
9739;SDS011;4909;42.680;26.324;2024-02-26T07:10:17;300.23;;;143.43;;
9739;SDS011;4909;42.680;26.324;2024-02-26T07:12:44;301.57;;;140.63;;
9739;SDS011;4909;42.680;26.324;2024-02-26T07:15:13;305.57;;;139.97;;
9739;SDS011;4909;42.680;26.324;2024-02-26T07:17:40;307.77;;;149.33;;
9739;SDS011;4909;42.680;26.324;2024-02-26T07:20:12;309.87;;;151.80;;
9739;SDS011;4909;42.680;26.324;2024-02-26T07:22:39;314.17;;;157.03;;
9739;SDS011;4909;42.680;26.324;2024-02-26T07:25:07;317.07;;;153.93;;
9739;SDS011;4909;42.680;26.324;2024-02-26T07:27:38;321.07;;;161.00;;
9739;SDS011;4909;42.680;26.324;2024-02-26T07:30:05;320.77;;;164.07;;
9739;SDS011;4909;42.680;26.324;2024-02-26T07:32:34;322.10;;;175.07;;
9739;SDS011;4909;42.680;26.324;2024-02-26T07:35:00;320.67;;;169.97;;
9739;SDS011;4909;42.680;26.324;2024-02-26T07:37:28;319.57;;;174.50;;
9739;SDS011;4909;42.680;26.324;2024-02-26T07:39:54;325.17;;;174.93;;
9739;SDS011;4909;42.680;26.324;2024-02-26T07:42:21;323.63;;;178.27;;
9739;SDS011;4909;42.680;26.324;2024-02-26T07:44:48;323.03;;;172.63;;
9739;SDS011;4909;42.680;26.324;2024-02-26T07:47:15;328.93;;;184.63;;
9739;SDS011;4909;42.680;26.324;2024-02-26T07:49:44;328.80;;;180.57;;
9739;SDS011;4909;42.680;26.324;2024-02-26T07:52:11;321.57;;;179.53;;
9739;SDS011;4909;42.680;26.324;2024-02-26T07:54:38;321.40;;;167.90;;
9739;SDS011;4909;42.680;26.324;2024-02-26T07:57:05;319.43;;;166.47;;
9739;SDS011;4909;42.680;26.324;2024-02-26T07:59:32;323.63;;;171.13;;
9739;SDS011;4909;42.680;26.324;2024-02-26T08:01:59;325.73;;;168.87;;
9739;SDS011;4909;42.680;26.324;2024-02-26T08:04:28;323.13;;;165.93;;
9739;SDS011;4909;42.680;26.324;2024-02-26T08:06:56;321.60;;;167.30;;
9739;SDS011;4909;42.680;26.324;2024-02-26T08:09:23;315.50;;;155.57;;
9739;SDS011;4909;42.680;26.324;2024-02-26T08:11:50;313.63;;;157.03;;
9739;SDS011;4909;42.680;26.324;2024-02-26T08:14:17;323.50;;;158.53;;
9739;SDS011;4909;42.680;26.324;2024-02-26T08:16:44;312.30;;;157.97;;
9739;SDS011;4909;42.680;26.324;2024-02-26T08:19:11;315.60;;;162.83;;
9739;SDS011;4909;42.680;26.324;2024-02-26T08:21:40;314.30;;;161.80;;
9739;SDS011;4909;42.680;26.324;2024-02-26T08:24:08;321.63;;;167.63;;
9739;SDS011;4909;42.680;26.324;2024-02-26T08:26:35;325.83;;;174.53;;
9739;SDS011;4909;42.680;26.324;2024-02-26T08:29:02;328.90;;;188.63;;
9739;SDS011;4909;42.680;26.324;2024-02-26T08:31:29;325.83;;;195.53;;
9739;SDS011;4909;42.680;26.324;2024-02-26T08:33:56;334.17;;;213.23;;
9739;SDS011;4909;42.680;26.324;2024-02-26T08:36:24;332.27;;;228.00;;
9739;SDS011;4909;42.680;26.324;2024-02-26T08:38:51;336.83;;;232.50;;
9739;SDS011;4909;42.680;26.324;2024-02-26T08:41:19;333.13;;;240.23;;
9739;SDS011;4909;42.680;26.324;2024-02-26T08:43:46;341.93;;;273.63;;
9739;SDS011;4909;42.680;26.324;2024-02-26T08:46:13;341.03;;;259.03;;
9739;SDS011;4909;42.680;26.324;2024-02-26T08:48:40;345.50;;;278.93;;
9739;SDS011;4909;42.680;26.324;2024-02-26T08:51:07;349.83;;;297.47;;
9739;SDS011;4909;42.680;26.324;2024-02-26T08:53:35;354.10;;;303.53;;
9739;SDS011;4909;42.680;26.324;2024-02-26T08:56:03;381.60;;;341.60;;
9739;SDS011;4909;42.680;26.324;2024-02-26T08:58:32;385.60;;;345.37;;
9739;SDS011;4909;42.680;26.324;2024-02-26T09:00:59;406.23;;;366.03;;
9739;SDS011;4909;42.680;26.324;2024-02-26T09:03:26;411.03;;;370.87;;
9739;SDS011;4909;42.680;26.324;2024-02-26T09:05:53;412.30;;;372.33;;
9739;SDS011;4909;42.680;26.324;2024-02-26T09:08:20;427.57;;;386.50;;
9739;SDS011;4909;42.680;26.324;2024-02-26T09:10:47;416.53;;;376.57;;
9739;SDS011;4909;42.680;26.324;2024-02-26T09:13:14;391.07;;;351.60;;
9739;SDS011;4909;42.680;26.324;2024-02-26T09:15:42;404.57;;;364.40;;
9739;SDS011;4909;42.680;26.324;2024-02-26T09:18:09;397.40;;;357.10;;
9739;SDS011;4909;42.680;26.324;2024-02-26T09:20:36;382.70;;;343.10;;
9739;SDS011;4909;42.680;26.324;2024-02-26T09:23:04;377.43;;;337.60;;
9739;SDS011;4909;42.680;26.324;2024-02-26T09:25:31;371.23;;;332.03;;
9739;SDS011;4909;42.680;26.324;2024-02-26T09:27:58;359.80;;;320.33;;
9739;SDS011;4909;42.680;26.324;2024-02-26T09:30:25;359.33;;;319.60;;
9739;SDS011;4909;42.680;26.324;2024-02-26T09:32:54;359.43;;;320.13;;
9739;SDS011;4909;42.680;26.324;2024-02-26T09:35:21;350.50;;;300.97;;
9739;SDS011;4909;42.680;26.324;2024-02-26T09:37:48;352.60;;;301.03;;
9739;SDS011;4909;42.680;26.324;2024-02-26T09:40:15;350.40;;;299.87;;
9739;SDS011;4909;42.680;26.324;2024-02-26T09:42:42;350.87;;;297.30;;
9739;SDS011;4909;42.680;26.324;2024-02-26T09:45:11;350.93;;;295.53;;
9739;SDS011;4909;42.680;26.324;2024-02-26T09:47:44;345.27;;;278.30;;
9739;SDS011;4909;42.680;26.324;2024-02-26T09:50:13;349.93;;;283.87;;
9739;SDS011;4909;42.680;26.324;2024-02-26T09:52:43;344.27;;;255.57;;
9739;SDS011;4909;42.680;26.324;2024-02-26T09:55:10;339.30;;;249.93;;
9739;SDS011;4909;42.680;26.324;2024-02-26T09:57:37;335.87;;;240.87;;
9739;SDS011;4909;42.680;26.324;2024-02-26T10:00:04;334.17;;;233.73;;
9739;SDS011;4909;42.680;26.324;2024-02-26T10:02:38;343.30;;;243.70;;
9739;SDS011;4909;42.680;26.324;2024-02-26T10:05:06;338.27;;;230.10;;
9739;SDS011;4909;42.680;26.324;2024-02-26T10:07:38;336.20;;;219.53;;
9739;SDS011;4909;42.680;26.324;2024-02-26T10:10:05;344.07;;;222.47;;
9739;SDS011;4909;42.680;26.324;2024-02-26T10:12:33;336.33;;;222.80;;
9739;SDS011;4909;42.680;26.324;2024-02-26T10:14:59;344.17;;;236.33;;
9739;SDS011;4909;42.680;26.324;2024-02-26T10:17:27;339.03;;;233.13;;
9739;SDS011;4909;42.680;26.324;2024-02-26T10:19:54;332.47;;;214.30;;
9739;SDS011;4909;42.680;26.324;2024-02-26T10:22:21;335.30;;;217.27;;
9739;SDS011;4909;42.680;26.324;2024-02-26T10:24:50;335.47;;;230.53;;
9739;SDS011;4909;42.680;26.324;2024-02-26T10:27:17;336.93;;;226.67;;
9739;SDS011;4909;42.680;26.324;2024-02-26T10:29:45;341.87;;;231.73;;
9739;SDS011;4909;42.680;26.324;2024-02-26T10:32:12;333.50;;;236.57;;
9739;SDS011;4909;42.680;26.324;2024-02-26T10:34:39;341.07;;;244.13;;
9739;SDS011;4909;42.680;26.324;2024-02-26T10:37:07;337.77;;;241.77;;
9739;SDS011;4909;42.680;26.324;2024-02-26T10:39:36;337.77;;;248.77;;
9739;SDS011;4909;42.680;26.324;2024-02-26T10:42:05;340.83;;;259.97;;
9739;SDS011;4909;42.680;26.324;2024-02-26T10:44:40;340.80;;;263.97;;
9739;SDS011;4909;42.680;26.324;2024-02-26T10:47:08;342.60;;;258.83;;
9739;SDS011;4909;42.680;26.324;2024-02-26T10:49:35;338.93;;;249.27;;
9739;SDS011;4909;42.680;26.324;2024-02-26T10:52:03;338.57;;;243.17;;
9739;SDS011;4909;42.680;26.324;2024-02-26T10:54:32;339.63;;;258.07;;
9739;SDS011;4909;42.680;26.324;2024-02-26T10:57:01;338.43;;;245.73;;
9739;SDS011;4909;42.680;26.324;2024-02-26T10:59:31;335.03;;;237.90;;
9739;SDS011;4909;42.680;26.324;2024-02-26T11:02:01;338.30;;;255.33;;
9739;SDS011;4909;42.680;26.324;2024-02-26T11:04:29;333.20;;;228.53;;
9739;SDS011;4909;42.680;26.324;2024-02-26T11:06:57;332.23;;;224.23;;
9739;SDS011;4909;42.680;26.324;2024-02-26T11:09:26;330.80;;;226.80;;
9739;SDS011;4909;42.680;26.324;2024-02-26T11:11:54;335.03;;;234.20;;
9739;SDS011;4909;42.680;26.324;2024-02-26T11:14:22;336.27;;;235.63;;
9739;SDS011;4909;42.680;26.324;2024-02-26T11:16:52;334.83;;;225.93;;
9739;SDS011;4909;42.680;26.324;2024-02-26T11:19:21;339.40;;;265.67;;
9739;SDS011;4909;42.680;26.324;2024-02-26T11:21:51;338.33;;;245.40;;
9739;SDS011;4909;42.680;26.324;2024-02-26T11:24:18;332.00;;;218.77;;
9739;SDS011;4909;42.680;26.324;2024-02-26T11:26:45;329.33;;;218.60;;
9739;SDS011;4909;42.680;26.324;2024-02-26T11:29:23;328.70;;;222.40;;
9739;SDS011;4909;42.680;26.324;2024-02-26T11:31:55;334.57;;;242.40;;
9739;SDS011;4909;42.680;26.324;2024-02-26T11:34:22;330.63;;;226.73;;
9739;SDS011;4909;42.680;26.324;2024-02-26T11:36:51;338.97;;;247.40;;
9739;SDS011;4909;42.680;26.324;2024-02-26T11:39:18;338.60;;;246.17;;
9739;SDS011;4909;42.680;26.324;2024-02-26T11:41:46;334.77;;;243.97;;
9739;SDS011;4909;42.680;26.324;2024-02-26T11:44:13;335.53;;;248.07;;
9739;SDS011;4909;42.680;26.324;2024-02-26T11:46:41;338.27;;;246.90;;
9739;SDS011;4909;42.680;26.324;2024-02-26T11:52:00;333.87;;;219.73;;
9739;SDS011;4909;42.680;26.324;2024-02-26T11:54:38;331.83;;;219.23;;
9739;SDS011;4909;42.680;26.324;2024-02-26T11:57:22;334.50;;;223.43;;
9739;SDS011;4909;42.680;26.324;2024-02-26T11:59:50;334.03;;;221.03;;
9739;SDS011;4909;42.680;26.324;2024-02-26T12:05:14;339.33;;;219.13;;
9739;SDS011;4909;42.680;26.324;2024-02-26T12:07:43;333.53;;;207.10;;
9739;SDS011;4909;42.680;26.324;2024-02-26T12:10:15;322.03;;;189.80;;
9739;SDS011;4909;42.680;26.324;2024-02-26T12:12:47;323.97;;;196.27;;
9739;SDS011;4909;42.680;26.324;2024-02-26T12:15:14;326.57;;;199.67;;
9739;SDS011;4909;42.680;26.324;2024-02-26T12:17:47;326.33;;;203.93;;
9739;SDS011;4909;42.680;26.324;2024-02-26T12:20:16;323.23;;;203.03;;
9739;SDS011;4909;42.680;26.324;2024-02-26T12:22:45;330.07;;;206.07;;
9739;SDS011;4909;42.680;26.324;2024-02-26T12:25:13;324.67;;;201.43;;
9739;SDS011;4909;42.680;26.324;2024-02-26T12:27:40;334.57;;;216.93;;
9739;SDS011;4909;42.680;26.324;2024-02-26T12:30:08;330.23;;;209.07;;
9739;SDS011;4909;42.680;26.324;2024-02-26T12:32:36;331.57;;;210.53;;
9739;SDS011;4909;42.680;26.324;2024-02-26T12:35:03;330.77;;;208.47;;
9739;SDS011;4909;42.680;26.324;2024-02-26T12:37:34;330.17;;;208.10;;
9739;SDS011;4909;42.680;26.324;2024-02-26T12:40:03;330.77;;;220.73;;
9739;SDS011;4909;42.680;26.324;2024-02-26T12:42:33;327.20;;;214.83;;
9739;SDS011;4909;42.680;26.324;2024-02-26T12:45:04;333.37;;;224.43;;
9739;SDS011;4909;42.680;26.324;2024-02-26T12:47:34;335.67;;;224.30;;
9739;SDS011;4909;42.680;26.324;2024-02-26T12:50:02;340.27;;;225.60;;
9739;SDS011;4909;42.680;26.324;2024-02-26T12:52:30;327.50;;;211.40;;
9739;SDS011;4909;42.680;26.324;2024-02-26T12:54:59;330.67;;;216.67;;
9739;SDS011;4909;42.680;26.324;2024-02-26T12:57:27;331.87;;;213.73;;
9739;SDS011;4909;42.680;26.324;2024-02-26T12:59:55;328.23;;;212.97;;
9739;SDS011;4909;42.680;26.324;2024-02-26T13:02:23;330.17;;;212.03;;
9739;SDS011;4909;42.680;26.324;2024-02-26T13:04:50;332.87;;;212.83;;
9739;SDS011;4909;42.680;26.324;2024-02-26T13:07:17;331.87;;;210.93;;
9739;SDS011;4909;42.680;26.324;2024-02-26T13:09:44;331.03;;;210.17;;
9739;SDS011;4909;42.680;26.324;2024-02-26T13:12:13;327.80;;;205.97;;
9739;SDS011;4909;42.680;26.324;2024-02-26T13:14:40;328.03;;;211.50;;
9739;SDS011;4909;42.680;26.324;2024-02-26T13:17:07;329.43;;;218.17;;
9739;SDS011;4909;42.680;26.324;2024-02-26T13:19:35;327.37;;;211.77;;
9739;SDS011;4909;42.680;26.324;2024-02-26T13:22:05;332.10;;;220.07;;
9739;SDS011;4909;42.680;26.324;2024-02-26T13:24:33;330.17;;;209.90;;
9739;SDS011;4909;42.680;26.324;2024-02-26T13:27:00;330.37;;;217.50;;
9739;SDS011;4909;42.680;26.324;2024-02-26T13:29:29;329.43;;;204.73;;
9739;SDS011;4909;42.680;26.324;2024-02-26T13:31:57;326.73;;;205.90;;
9739;SDS011;4909;42.680;26.324;2024-02-26T13:34:24;330.03;;;219.47;;
9739;SDS011;4909;42.680;26.324;2024-02-26T13:36:52;329.47;;;207.73;;
9739;SDS011;4909;42.680;26.324;2024-02-26T13:39:23;330.07;;;206.97;;
9739;SDS011;4909;42.680;26.324;2024-02-26T13:41:50;326.90;;;197.73;;
9739;SDS011;4909;42.680;26.324;2024-02-26T13:44:18;330.37;;;205.20;;
9739;SDS011;4909;42.680;26.324;2024-02-26T13:46:47;330.57;;;203.87;;
9739;SDS011;4909;42.680;26.324;2024-02-26T13:49:15;327.00;;;196.83;;
9739;SDS011;4909;42.680;26.324;2024-02-26T13:51:43;322.63;;;186.87;;
9739;SDS011;4909;42.680;26.324;2024-02-26T13:54:10;323.37;;;188.53;;
9739;SDS011;4909;42.680;26.324;2024-02-26T13:56:37;325.77;;;199.40;;
9739;SDS011;4909;42.680;26.324;2024-02-26T13:59:04;333.47;;;196.37;;
9739;SDS011;4909;42.680;26.324;2024-02-26T14:01:31;327.63;;;188.93;;
9739;SDS011;4909;42.680;26.324;2024-02-26T14:04:00;324.03;;;184.30;;
9739;SDS011;4909;42.680;26.324;2024-02-26T14:06:29;331.67;;;196.73;;
9739;SDS011;4909;42.680;26.324;2024-02-26T14:08:57;326.70;;;185.90;;
9739;SDS011;4909;42.680;26.324;2024-02-26T14:11:25;328.27;;;190.10;;
9739;SDS011;4909;42.680;26.324;2024-02-26T14:13:54;323.47;;;187.00;;
9739;SDS011;4909;42.680;26.324;2024-02-26T14:16:21;328.20;;;185.67;;